Time;durP1;ratioP1;P1;durP2;ratioP2;P2;SDS_P1;SDS_P2;PMS_P1;PMS_P2;Temp;Humidity;BMP_temperature;BMP_pressure;BME280_temperature;BME280_humidity;BME280_pressure;Samples;Min_cycle;Max_cycle;Signal;HPM_P1;HPM_P2
2021/11/24 00:00:29;;;;;;;25.25;16.23;;;;;;;3.46;100.00;93733.22;5027723;28;20052;-83
2021/11/24 00:02:56;;;;;;;27.17;17.00;;;;;;;3.45;100.00;93729.91;5027893;28;20049;-82
2021/11/24 00:05:23;;;;;;;25.00;16.02;;;;;;;3.48;100.00;93731.34;5028019;28;20064;-82
2021/11/24 00:07:50;;;;;;;25.35;16.42;;;;;;;3.48;100.00;93728.81;5027505;28;20053;-82
2021/11/24 00:10:19;;;;;;;25.63;16.42;;;;;;;3.44;100.00;93719.91;5028068;28;20046;-82
2021/11/24 00:12:47;;;;;;;27.27;17.90;;;;;;;3.47;100.00;93737.34;5027892;28;20056;-82
2021/11/24 00:15:16;;;;;;;30.13;17.45;;;;;;;3.50;100.00;93729.44;5027602;28;20045;-81
2021/11/24 00:17:43;;;;;;;26.20;17.13;;;;;;;3.48;100.00;93733.88;5027786;28;20053;-82
2021/11/24 00:20:10;;;;;;;26.45;17.42;;;;;;;3.47;100.00;93730.53;5027230;28;20042;-82
2021/11/24 00:22:37;;;;;;;26.17;17.48;;;;;;;3.38;100.00;93740.81;5027416;28;20046;-82
2021/11/24 00:25:05;;;;;;;27.50;18.00;;;;;;;3.39;100.00;93738.13;5027110;28;20543;-82
2021/11/24 00:27:32;;;;;;;27.77;17.85;;;;;;;3.43;100.00;93738.63;5026956;28;20049;-82
2021/11/24 00:29:59;;;;;;;28.02;17.15;;;;;;;3.40;100.00;93734.66;5027117;28;20075;-82
2021/11/24 00:32:27;;;;;;;26.55;17.13;;;;;;;3.46;100.00;93740.84;5005516;28;20524;-81
2021/11/24 00:34:54;;;;;;;25.63;17.40;;;;;;;3.31;100.00;93726.19;5027610;28;21454;-81
2021/11/24 00:37:21;;;;;;;27.80;17.80;;;;;;;3.20;100.00;93709.47;5027393;28;20060;-80
2021/11/24 00:39:48;;;;;;;28.20;17.58;;;;;;;3.33;100.00;93729.38;5026850;28;20085;-80
2021/11/24 00:42:15;;;;;;;29.20;18.42;;;;;;;3.28;100.00;93728.25;5027307;28;20057;-80
2021/11/24 00:44:42;;;;;;;25.65;17.40;;;;;;;3.37;100.00;93737.47;5027360;28;20068;-80
2021/11/24 00:47:09;;;;;;;29.00;18.20;;;;;;;3.36;100.00;93732.53;5027004;28;20055;-82
2021/11/24 00:49:39;;;;;;;29.42;18.20;;;;;;;3.31;100.00;93717.78;4984875;28;20093;-82
2021/11/24 00:52:07;;;;;;;29.08;17.42;;;;;;;3.06;100.00;93687.22;5006031;28;20038;-83
2021/11/24 00:54:34;;;;;;;27.75;17.98;;;;;;;3.23;100.00;93716.00;5007116;28;20042;-82
2021/11/24 00:57:01;;;;;;;25.15;16.98;;;;;;;3.34;100.00;93732.72;5007146;28;20073;-82
2021/11/24 00:59:28;;;;;;;28.13;17.17;;;;;;;3.26;100.00;93725.84;5005925;28;20046;-83
2021/11/24 01:01:55;;;;;;;26.90;16.95;;;;;;;3.11;100.00;93707.84;5006824;28;20061;-82
2021/11/24 01:04:22;;;;;;;26.77;17.35;;;;;;;3.13;100.00;93710.22;5007278;28;20060;-82
2021/11/24 01:06:51;;;;;;;25.08;17.23;;;;;;;3.09;100.00;93709.72;5008254;28;20421;-82
2021/11/24 01:09:17;;;;;;;27.40;17.88;;;;;;;3.30;100.00;93721.25;5008809;28;20046;-82
2021/11/24 01:11:44;;;;;;;26.88;17.60;;;;;;;3.17;100.00;93698.81;5007384;28;20049;-82
2021/11/24 01:14:11;;;;;;;27.67;17.95;;;;;;;3.43;100.00;93720.84;5006723;28;20056;-82
2021/11/24 01:16:39;;;;;;;27.30;17.20;;;;;;;3.41;100.00;93725.25;5006562;28;20046;-82
2021/11/24 01:19:06;;;;;;;26.60;17.00;;;;;;;3.41;100.00;93728.63;5006302;28;20417;-82
2021/11/24 01:21:33;;;;;;;27.02;17.20;;;;;;;3.27;100.00;93691.09;5006786;28;20053;-82
2021/11/24 01:24:01;;;;;;;27.23;17.48;;;;;;;3.41;100.00;93708.28;5006884;28;20062;-82
2021/11/24 01:26:28;;;;;;;27.52;19.05;;;;;;;3.56;100.00;93723.75;5006664;28;20099;-82
2021/11/24 01:28:55;;;;;;;26.27;17.25;;;;;;;3.59;100.00;93733.63;5006653;28;20052;-82
2021/11/24 01:31:22;;;;;;;24.83;17.02;;;;;;;3.69;100.00;93735.22;5006692;28;20046;-82
2021/11/24 01:33:49;;;;;;;25.65;15.45;;;;;;;3.56;100.00;93692.47;5006240;28;20060;-82
2021/11/24 01:36:16;;;;;;;23.50;15.38;;;;;;;3.59;100.00;93720.09;5005523;28;20520;-82
2021/11/24 01:38:43;;;;;;;24.27;15.50;;;;;;;3.59;100.00;93722.66;5005704;28;20056;-81
2021/11/24 01:41:11;;;;;;;25.98;17.88;;;;;;;3.53;100.00;93720.72;5005533;28;20057;-83
2021/11/24 01:43:38;;;;;;;24.30;16.67;;;;;;;3.59;100.00;93710.75;5005474;28;20137;-82
2021/11/24 01:46:05;;;;;;;25.50;16.50;;;;;;;3.71;100.00;93716.31;5005192;28;20046;-82
2021/11/24 01:48:32;;;;;;;24.77;17.00;;;;;;;3.72;100.00;93719.66;5004477;28;20048;-83
2021/11/24 01:50:59;;;;;;;25.00;16.20;;;;;;;3.73;100.00;93723.78;5005780;28;20060;-83
2021/11/24 01:53:27;;;;;;;24.95;16.45;;;;;;;3.69;100.00;93719.97;5006513;28;20082;-82
2021/11/24 01:55:55;;;;;;;27.83;17.67;;;;;;;3.48;100.00;93698.34;5006104;28;20096;-83
2021/11/24 01:58:24;;;;;;;25.38;16.88;;;;;;;3.50;100.00;93718.47;5006063;28;20429;-82
2021/11/24 02:00:51;;;;;;;24.73;16.52;;;;;;;3.51;100.00;93704.84;5006381;28;20706;-82
2021/11/24 02:03:17;;;;;;;26.15;17.75;;;;;;;3.52;100.00;93716.59;5005876;28;20426;-81
2021/11/24 02:05:44;;;;;;;26.30;17.13;;;;;;;3.45;100.00;93696.88;5006098;28;20046;-81
2021/11/24 02:08:11;;;;;;;25.25;17.30;;;;;;;3.56;100.00;93710.25;5005673;28;20052;-81
2021/11/24 02:10:38;;;;;;;26.02;17.08;;;;;;;3.38;100.00;93684.97;5005797;28;20068;-81
2021/11/24 02:13:05;;;;;;;26.63;17.55;;;;;;;3.60;100.00;93709.78;5006136;28;20641;-81
2021/11/24 02:15:33;;;;;;;25.75;17.25;;;;;;;3.66;100.00;93718.53;5005807;28;20052;-81
2021/11/24 02:18:03;;;;;;;24.63;16.90;;;;;;;3.61;100.00;93700.41;5005890;28;20060;-83
2021/11/24 02:20:38;;;;;;;26.08;17.75;;;;;;;3.53;100.00;93708.81;5005375;28;20108;-83
2021/11/24 02:23:08;;;;;;;26.52;16.90;;;;;;;3.61;100.00;93708.03;5005964;28;20054;-82
2021/11/24 02:25:35;;;;;;;27.17;18.15;;;;;;;3.49;100.00;93712.63;5005449;28;20506;-82
2021/11/24 02:28:02;;;;;;;29.70;18.83;;;;;;;3.52;100.00;93704.66;5005366;28;20150;-82
2021/11/24 02:30:30;;;;;;;27.63;17.48;;;;;;;3.52;100.00;93711.50;5005621;28;20054;-82
2021/11/24 02:32:57;;;;;;;27.05;16.98;;;;;;;3.51;100.00;93707.38;5005891;28;20141;-82
2021/11/24 02:35:25;;;;;;;25.30;16.67;;;;;;;3.44;100.00;93692.75;5005790;28;20052;-82
2021/11/24 02:37:53;;;;;;;26.70;17.67;;;;;;;3.51;100.00;93707.38;5005356;28;20084;-82
2021/11/24 02:40:20;;;;;;;23.45;16.25;;;;;;;3.61;100.00;93708.03;5005165;28;20038;-84
2021/11/24 02:42:47;;;;;;;25.33;16.85;;;;;;;3.54;100.00;93707.88;5005154;28;20058;-84
2021/11/24 02:45:14;;;;;;;26.77;18.40;;;;;;;3.42;100.00;93699.72;5005296;28;20052;-85
2021/11/24 02:47:41;;;;;;;24.80;17.33;;;;;;;3.60;100.00;93709.78;5005132;28;20505;-84
2021/11/24 02:50:08;;;;;;;24.98;17.25;;;;;;;3.55;100.00;93716.28;5005627;28;20045;-83
2021/11/24 02:52:35;;;;;;;26.25;18.08;;;;;;;3.56;100.00;93715.34;5005542;28;20058;-84
2021/11/24 02:55:06;;;;;;;26.13;17.33;;;;;;;3.56;100.00;93718.66;5005221;28;20045;-83
2021/11/24 02:57:35;;;;;;;25.63;16.80;;;;;;;3.52;100.00;93704.66;5005104;28;20050;-84
2021/11/24 03:00:02;;;;;;;26.50;17.27;;;;;;;3.50;100.00;93721.00;5005288;28;21067;-83
2021/11/24 03:02:29;;;;;;;25.52;17.25;;;;;;;3.58;100.00;93723.59;5004327;28;20153;-84
2021/11/24 03:04:56;;;;;;;27.05;19.05;;;;;;;3.64;100.00;93722.97;5005193;28;20049;-84
2021/11/24 03:07:23;;;;;;;27.00;17.95;;;;;;;3.64;100.00;93707.75;5005221;28;20045;-84
2021/11/24 03:09:52;;;;;;;27.40;18.63;;;;;;;3.49;100.00;93725.31;5003229;28;20049;-84
2021/11/24 03:12:21;;;;;;;25.55;17.70;;;;;;;3.54;100.00;93725.66;5008359;28;20050;-84
2021/11/24 03:14:48;;;;;;;29.80;19.77;;;;;;;3.45;100.00;93713.88;5003799;28;20054;-84
2021/11/24 03:17:15;;;;;;;24.55;16.45;;;;;;;3.43;100.00;93718.31;5007163;28;20045;-84
2021/11/24 03:19:43;;;;;;;25.38;18.13;;;;;;;3.44;100.00;93737.66;5007807;28;20064;-84
2021/11/24 03:22:11;;;;;;;28.92;18.38;;;;;;;3.28;100.00;93723.16;5008467;28;20049;-83
2021/11/24 03:24:38;;;;;;;27.08;17.63;;;;;;;3.20;100.00;93706.16;5012219;28;20045;-82
2021/11/24 03:27:05;;;;;;;26.77;18.30;;;;;;;3.32;100.00;93712.56;5012566;28;20395;-83
2021/11/24 03:29:33;;;;;;;28.30;18.70;;;;;;;3.46;100.00;93739.13;5012035;28;20042;-83
2021/11/24 03:32:00;;;;;;;28.48;19.25;;;;;;;3.54;100.00;93745.97;5012460;28;20152;-83
2021/11/24 03:34:27;;;;;;;30.70;20.55;;;;;;;3.25;100.00;93705.69;5012338;28;20148;-83
2021/11/24 03:36:54;;;;;;;29.63;20.83;;;;;;;3.47;100.00;93735.63;5012519;28;20134;-82
2021/11/24 03:39:21;;;;;;;30.75;20.80;;;;;;;3.61;100.00;93746.13;5012215;28;20054;-82
2021/11/24 03:41:48;;;;;;;28.90;20.48;;;;;;;3.55;100.00;93742.47;5010555;28;20103;-83
2021/11/24 03:44:15;;;;;;;28.55;19.85;;;;;;;3.34;100.00;93720.81;5012252;28;20045;-82
2021/11/24 03:46:43;;;;;;;32.38;20.20;;;;;;;3.51;100.00;93748.03;5011908;28;20053;-82
2021/11/24 03:49:10;;;;;;;30.70;19.52;;;;;;;3.43;100.00;93747.03;5012039;28;20085;-82
2021/11/24 03:51:37;;;;;;;29.40;19.70;;;;;;;3.23;100.00;93716.00;5012823;28;20042;-82
2021/11/24 03:54:04;;;;;;;29.42;19.52;;;;;;;3.42;100.00;93747.19;5012418;28;20050;-81
2021/11/24 03:56:31;;;;;;;30.13;19.45;;;;;;;3.32;100.00;93749.81;5012584;28;20120;-82
2021/11/24 03:58:58;;;;;;;29.17;19.10;;;;;;;3.31;100.00;93749.06;5012630;28;20054;-82
2021/11/24 04:01:25;;;;;;;28.60;19.42;;;;;;;3.39;100.00;93744.94;5012372;28;20056;-82
2021/11/24 04:03:54;;;;;;;30.90;20.00;;;;;;;3.43;100.00;93752.09;5012299;28;20433;-81
2021/11/24 04:06:21;;;;;;;28.33;18.70;;;;;;;3.32;100.00;93737.13;5012420;28;20049;-82
2021/11/24 04:08:47;;;;;;;30.15;20.63;;;;;;;3.48;100.00;93744.03;5012720;28;20360;-81
2021/11/24 04:11:14;;;;;;;27.13;18.73;;;;;;;3.52;100.00;93745.31;5012442;28;20073;-82
2021/11/24 04:13:41;;;;;;;29.13;19.17;;;;;;;3.58;100.00;93757.44;5011993;28;20045;-82
2021/11/24 04:16:08;;;;;;;26.77;17.73;;;;;;;3.51;100.00;93750.56;5012149;28;20053;-82
2021/11/24 04:18:35;;;;;;;29.23;20.08;;;;;;;3.71;100.00;93762.06;5011883;28;20049;-82
2021/11/24 04:21:03;;;;;;;28.80;20.27;;;;;;;3.78;100.00;93763.97;5011921;28;20417;-82
2021/11/24 04:23:30;;;;;;;27.50;19.33;;;;;;;3.94;100.00;93764.03;5011677;28;20053;-81
2021/11/24 04:25:57;;;;;;;26.45;19.25;;;;;;;4.14;100.00;93761.22;5011815;28;20060;-82
2021/11/24 04:28:24;;;;;;;28.63;20.02;;;;;;;4.23;100.00;93773.03;5011851;28;20517;-81
2021/11/24 04:30:51;;;;;;;28.00;18.17;;;;;;;4.23;100.00;93750.13;5011874;28;20486;-81
2021/11/24 04:33:18;;;;;;;26.85;18.33;;;;;;;4.31;100.00;93751.91;5011639;28;20066;-81
2021/11/24 04:35:45;;;;;;;28.80;18.83;;;;;;;4.30;100.00;93764.75;5011808;28;20409;-81
2021/11/24 04:38:13;;;;;;;28.92;17.90;;;;;;;4.16;100.00;93749.16;5011615;28;20046;-81
2021/11/24 04:40:40;;;;;;;30.65;18.40;;;;;;;4.11;100.00;93771.69;5011513;28;20049;-82
2021/11/24 04:43:10;;;;;;;31.88;20.05;;;;;;;4.17;100.00;93768.53;5011770;28;20081;-81
2021/11/24 04:45:37;;;;;;;35.97;20.30;;;;;;;4.17;100.00;93775.38;5011731;28;20128;-82
2021/11/24 04:48:04;;;;;;;33.05;18.42;;;;;;;4.05;100.00;93755.34;5011179;28;20046;-81
2021/11/24 04:50:31;;;;;;;33.40;18.05;;;;;;;4.14;100.00;93774.75;5011575;28;20069;-82
2021/11/24 04:52:58;;;;;;;30.50;20.30;;;;;;;3.97;100.00;93776.44;5011643;28;20046;-81
2021/11/24 04:55:26;;;;;;;36.65;21.55;;;;;;;3.85;100.00;93753.06;5011290;28;20056;-81
2021/11/24 04:57:53;;;;;;;44.13;25.20;;;;;;;3.85;100.00;93768.28;5011388;28;20056;-81
2021/11/24 05:00:22;;;;;;;38.30;21.42;;;;;;;3.66;100.00;93761.72;5011352;28;20057;-81
2021/11/24 05:02:51;;;;;;;35.15;21.98;;;;;;;3.69;100.00;93768.25;5011195;28;20053;-81
2021/11/24 05:05:19;;;;;;;42.90;22.48;;;;;;;3.84;100.00;93768.47;5011397;28;20128;-81
2021/11/24 05:07:46;;;;;;;42.00;22.38;;;;;;;3.97;100.00;93776.44;5011203;28;20049;-81
2021/11/24 05:10:14;;;;;;;35.65;21.33;;;;;;;3.58;100.00;93752.34;5010795;28;20049;-81
2021/11/24 05:12:42;;;;;;;29.45;19.10;;;;;;;3.64;100.00;93781.41;5011280;28;20064;-82
2021/11/24 05:15:16;;;;;;;29.33;18.70;;;;;;;3.46;100.00;93778.94;5010801;28;20050;-81
2021/11/24 05:17:44;;;;;;;27.08;18.02;;;;;;;3.39;100.00;93785.59;5010734;28;20690;-82
2021/11/24 05:20:12;;;;;;;28.45;18.13;;;;;;;3.50;100.00;93785.31;5010643;28;20054;-82
2021/11/24 05:22:38;;;;;;;29.67;19.73;;;;;;;3.55;100.00;93793.28;5010987;28;20056;-81
2021/11/24 05:25:06;;;;;;;31.33;19.60;;;;;;;3.58;100.00;93794.72;5010981;28;20057;-81
2021/11/24 05:27:32;;;;;;;35.22;21.67;;;;;;;3.56;100.00;93794.88;5010531;28;20049;-82
2021/11/24 05:30:01;;;;;;;37.83;21.20;;;;;;;3.75;100.00;93800.66;5010802;28;20058;-81
2021/11/24 05:32:28;;;;;;;40.33;22.83;;;;;;;3.91;100.00;93799.94;5010954;28;20050;-82
2021/11/24 05:34:54;;;;;;;41.90;22.80;;;;;;;4.06;100.00;93805.22;5010803;28;20041;-82
2021/11/24 05:37:21;;;;;;;37.85;21.25;;;;;;;4.04;100.00;93809.69;5010836;28;20056;-82
2021/11/24 05:39:48;;;;;;;38.00;20.92;;;;;;;3.86;100.00;93769.09;5010168;28;20057;-81
2021/11/24 05:42:15;;;;;;;28.23;18.40;;;;;;;3.94;100.00;93803.91;5010708;28;20053;-82
2021/11/24 05:44:47;;;;;;;26.75;18.60;;;;;;;3.87;100.00;93806.28;5010352;28;20065;-82
2021/11/24 05:47:50;;;;;;;28.10;18.95;;;;;;;3.47;100.00;93781.34;5010103;28;20415;-82
2021/11/24 05:50:09;;;;;;;;;;;;;;;3.46;100.00;93811.97;5010523;28;20049;-82
2021/11/24 05:52:36;;;;;;;27.13;17.30;;;;;;;3.32;100.00;93814.13;5010648;28;19921;-82
2021/11/24 05:55:03;;;;;;;30.13;19.30;;;;;;;3.36;100.00;93822.22;5010591;28;20052;-82
2021/11/24 05:57:30;;;;;;;26.42;18.10;;;;;;;3.38;100.00;93824.63;5010399;28;20058;-82
2021/11/24 05:59:58;;;;;;;25.83;17.17;;;;;;;3.30;100.00;93833.00;5010420;28;20050;-82
2021/11/24 06:02:26;;;;;;;25.08;17.60;;;;;;;3.32;100.00;93831.09;5010141;28;20048;-82
2021/11/24 06:04:53;;;;;;;28.08;18.08;;;;;;;3.39;100.00;93823.69;5010033;28;20516;-81
2021/11/24 06:07:20;;;;;;;31.13;19.83;;;;;;;3.42;100.00;93836.09;5010269;28;20072;-81
2021/11/24 06:09:47;;;;;;;30.92;20.10;;;;;;;3.44;100.00;93844.34;5010304;28;20052;-82
2021/11/24 06:12:13;;;;;;;28.25;18.63;;;;;;;3.30;100.00;93833.78;5010004;28;20060;-82
2021/11/24 06:14:41;;;;;;;43.33;24.02;;;;;;;3.29;100.00;93841.56;5010273;28;20049;-82
2021/11/24 06:17:08;;;;;;;36.90;23.17;;;;;;;3.32;100.00;93836.97;5010207;28;20056;-81
2021/11/24 06:19:36;;;;;;;33.03;20.80;;;;;;;3.35;100.00;93851.13;5010089;28;20061;-82
2021/11/24 06:22:05;;;;;;;45.08;27.33;;;;;;;3.41;100.00;93839.53;5010153;28;20049;-82
2021/11/24 06:24:31;;;;;;;29.05;19.25;;;;;;;3.49;100.00;93834.53;5009640;28;20056;-82
2021/11/24 06:26:58;;;;;;;37.08;22.40;;;;;;;3.67;100.00;93846.38;5010041;28;20058;-82
2021/11/24 06:29:25;;;;;;;33.08;21.08;;;;;;;3.59;100.00;93857.28;5009998;28;20050;-82
2021/11/24 06:31:52;;;;;;;29.20;20.08;;;;;;;3.53;100.00;93847.72;5009672;28;20053;-82
2021/11/24 06:34:19;;;;;;;30.65;20.95;;;;;;;3.30;100.00;93821.09;5009991;28;20049;-82
2021/11/24 06:36:47;;;;;;;30.63;19.17;;;;;;;3.58;100.00;93858.22;5009841;28;20853;-82
2021/11/24 06:39:14;;;;;;;32.22;21.58;;;;;;;3.63;100.00;93855.22;5012366;28;20076;-82
2021/11/24 06:41:41;;;;;;;33.22;21.05;;;;;;;3.58;100.00;93843.81;5010011;28;20046;-82
2021/11/24 06:44:08;;;;;;;37.20;21.65;;;;;;;3.92;100.00;93856.63;5009614;28;20058;-82
2021/11/24 06:46:35;;;;;;;35.50;20.58;;;;;;;3.75;100.00;93813.34;5009607;28;20057;-82
2021/11/24 06:49:03;;;;;;;30.88;19.98;;;;;;;3.68;100.00;93830.16;5009685;28;20045;-82
2021/11/24 06:51:30;;;;;;;30.48;19.33;;;;;;;3.70;100.00;93849.41;5009291;28;20050;-82
2021/11/24 06:53:58;;;;;;;26.80;17.88;;;;;;;3.69;100.00;93867.34;5009719;28;20413;-82
2021/11/24 06:56:25;;;;;;;27.38;18.33;;;;;;;3.57;100.00;93843.94;5009725;28;20057;-82
2021/11/24 06:58:51;;;;;;;30.27;20.13;;;;;;;3.64;100.00;93850.00;5012147;28;20045;-82
2021/11/24 07:01:18;;;;;;;24.85;17.20;;;;;;;3.64;100.00;93869.53;5009453;28;20064;-82
2021/11/24 07:03:45;;;;;;;25.65;16.38;;;;;;;3.79;100.00;93864.69;5033655;28;20076;-82
2021/11/24 07:06:12;;;;;;;29.98;18.50;;;;;;;3.63;100.00;93862.84;5032978;28;20599;-82
2021/11/24 07:08:39;;;;;;;27.17;17.55;;;;;;;3.75;100.00;93869.25;5033012;28;20056;-82
2021/11/24 07:11:07;;;;;;;27.40;17.77;;;;;;;3.85;100.00;93872.50;5033364;28;20053;-82
2021/11/24 07:13:34;;;;;;;30.02;19.00;;;;;;;3.95;100.00;93863.97;5033014;28;20627;-82
2021/11/24 07:16:01;;;;;;;26.33;17.52;;;;;;;3.37;100.00;93813.66;5033334;28;20048;-83
2021/11/24 07:18:28;;;;;;;32.92;20.83;;;;;;;3.58;100.00;93846.34;5033166;28;20056;-82
2021/11/24 07:20:55;;;;;;;24.63;16.27;;;;;;;3.83;100.00;93868.50;5033038;28;20053;-82
2021/11/24 07:23:21;;;;;;;27.02;17.23;;;;;;;3.95;100.00;93871.59;5032886;28;20051;-82
2021/11/24 07:25:48;;;;;;;29.67;18.33;;;;;;;3.98;100.00;93840.81;5032977;28;20080;-82
2021/11/24 07:28:17;;;;;;;34.28;19.58;;;;;;;4.07;100.00;93861.97;5033104;28;20386;-82
2021/11/24 07:30:43;;;;;;;28.15;17.67;;;;;;;4.20;100.00;93864.06;5033018;28;20045;-81
2021/11/24 07:33:10;;;;;;;45.75;26.02;;;;;;;4.26;100.00;93855.84;5032854;28;20046;-82
2021/11/24 07:35:37;;;;;;;22.55;15.32;;;;;;;3.99;100.00;93875.44;5032471;28;20052;-81
2021/11/24 07:38:04;;;;;;;23.90;15.25;;;;;;;3.90;100.00;93866.16;5032554;28;20055;-82
2021/11/24 07:40:31;;;;;;;36.63;21.02;;;;;;;3.87;100.00;93874.91;5032599;28;20075;-82
2021/11/24 07:42:58;;;;;;;21.35;15.45;;;;;;;3.80;100.00;93873.91;5033359;28;20057;-81
2021/11/24 07:45:26;;;;;;;27.80;17.92;;;;;;;3.99;100.00;93873.66;5033288;28;20056;-82
2021/11/24 07:47:53;;;;;;;22.98;16.15;;;;;;;3.89;100.00;93857.75;5032239;28;20507;-82
2021/11/24 07:50:20;;;;;;;26.05;16.92;;;;;;;4.05;100.00;93872.28;5029092;28;20050;-82
2021/11/24 07:52:47;;;;;;;30.45;18.20;;;;;;;4.13;100.00;93866.44;5030494;28;20049;-82
2021/11/24 07:55:13;;;;;;;26.10;16.30;;;;;;;4.20;100.00;93854.69;5031419;28;20049;-81
2021/11/24 07:57:40;;;;;;;29.02;18.35;;;;;;;4.23;100.00;93859.47;5032431;28;20053;-82
2021/11/24 08:00:08;;;;;;;25.45;17.42;;;;;;;4.12;100.00;93845.28;5032185;28;20068;-81
2021/11/24 08:02:37;;;;;;;29.73;20.48;;;;;;;4.22;100.00;93855.31;5031980;28;20064;-82
2021/11/24 08:05:05;;;;;;;32.15;20.80;;;;;;;4.25;100.00;93874.56;5032203;28;20049;-82
2021/11/24 08:07:32;;;;;;;36.40;22.90;;;;;;;4.11;100.00;93851.31;5032141;28;20424;-82
2021/11/24 08:09:59;;;;;;;30.45;19.40;;;;;;;4.27;100.00;93858.19;5031360;28;20045;-82
2021/11/24 08:12:26;;;;;;;31.92;20.20;;;;;;;4.22;100.00;93840.06;5031909;28;20053;-82
2021/11/24 08:14:53;;;;;;;45.88;26.88;;;;;;;4.04;100.00;93817.31;5031645;28;20060;-82
2021/11/24 08:17:20;;;;;;;34.92;22.70;;;;;;;4.53;100.00;93856.50;5032121;28;20053;-81
2021/11/24 08:19:49;;;;;;;48.70;27.00;;;;;;;4.50;100.00;93852.53;5031392;28;20053;-81
2021/11/24 08:22:15;;;;;;;26.70;16.77;;;;;;;4.53;100.00;93862.41;5031191;28;20128;-81
2021/11/24 08:24:43;;;;;;;23.20;15.82;;;;;;;4.51;100.00;93860.97;5030859;28;20041;-82
2021/11/24 08:27:10;;;;;;;28.73;19.50;;;;;;;4.63;100.00;93864.03;5031148;28;20049;-81
2021/11/24 08:29:37;;;;;;;30.92;20.48;;;;;;;4.46;100.00;93853.00;5031022;28;20053;-81
2021/11/24 08:32:04;;;;;;;31.42;20.80;;;;;;;4.43;100.00;93855.88;5030802;28;20072;-81
2021/11/24 08:34:31;;;;;;;27.92;17.52;;;;;;;4.33;100.00;93850.91;5030466;28;20673;-82
2021/11/24 08:36:59;;;;;;;31.48;22.73;;;;;;;4.63;100.00;93853.84;5030923;28;20508;-82
2021/11/24 08:39:27;;;;;;;28.45;18.20;;;;;;;4.55;100.00;93826.63;5031073;28;20041;-82
2021/11/24 08:41:54;;;;;;;27.33;18.38;;;;;;;4.55;100.00;93841.91;5030692;28;20513;-82
2021/11/24 08:44:21;;;;;;;20.02;13.98;;;;;;;4.66;100.00;93869.59;5031022;28;20056;-82
2021/11/24 08:46:48;;;;;;;23.98;16.20;;;;;;;4.67;100.00;93853.38;5028019;28;20942;-82
2021/11/24 08:49:15;;;;;;;23.80;15.50;;;;;;;4.91;100.00;93868.84;5031202;28;20045;-82
2021/11/24 08:51:42;;;;;;;28.38;16.90;;;;;;;5.13;100.00;93864.84;5031424;28;20416;-82
2021/11/24 08:54:12;;;;;;;27.40;17.63;;;;;;;5.27;100.00;93871.06;5031092;28;20045;-82
2021/11/24 08:56:40;;;;;;;23.80;16.13;;;;;;;5.20;100.00;93862.47;5011275;28;20050;-82
2021/11/24 08:59:08;;;;;;;23.98;15.45;;;;;;;5.38;100.00;93869.13;5011511;28;20116;-82
2021/11/24 09:01:36;;;;;;;27.17;19.63;;;;;;;4.96;100.00;93843.69;5011386;28;20089;-82
2021/11/24 09:04:04;;;;;;;33.00;22.35;;;;;;;5.07;100.00;93863.75;5011229;28;20058;-82
2021/11/24 09:06:31;;;;;;;88.90;62.53;;;;;;;5.19;100.00;93869.31;5010884;28;20050;-82
2021/11/24 09:08:58;;;;;;;46.22;28.58;;;;;;;5.20;100.00;93865.78;5011296;28;20416;-82
2021/11/24 09:11:26;;;;;;;48.22;27.83;;;;;;;4.33;100.00;93810.22;5010961;28;20050;-82
2021/11/24 09:13:53;;;;;;;55.28;31.65;;;;;;;4.78;100.00;93866.75;5010671;28;20054;-82
2021/11/24 09:16:20;;;;;;;69.30;37.42;;;;;;;4.71;100.00;93847.97;5027103;28;20047;-82
2021/11/24 09:18:47;;;;;;;31.58;20.95;;;;;;;4.70;100.00;93854.00;5027079;28;20489;-81
2021/11/24 09:21:14;;;;;;;35.25;21.45;;;;;;;4.71;100.00;93863.25;5025973;28;20069;-82
2021/11/24 09:23:43;;;;;;;62.47;33.03;;;;;;;4.88;100.00;93858.97;5026411;28;20052;-81
2021/11/24 09:26:26;;;;;;;40.47;25.05;;;;;;;4.88;100.00;93848.78;5026051;28;20053;-81
2021/11/24 09:28:54;;;;;;;72.40;39.42;;;;;;;4.80;100.00;93847.00;5026538;28;20057;-82
2021/11/24 09:31:21;;;;;;;127.47;59.15;;;;;;;4.82;100.00;93856.09;5026505;28;20417;-82
2021/11/24 09:33:48;;;;;;;54.08;30.58;;;;;;;5.01;100.00;93851.66;5025740;28;20065;-82
2021/11/24 09:36:15;;;;;;;77.50;42.28;;;;;;;4.94;100.00;93843.84;5026450;28;20048;-82
2021/11/24 09:38:42;;;;;;;51.15;28.30;;;;;;;4.81;100.00;93843.50;5026935;28;20057;-82
2021/11/24 09:41:11;;;;;;;47.33;29.13;;;;;;;4.88;100.00;93849.59;5025856;28;20109;-82
2021/11/24 09:43:41;;;;;;;50.97;30.63;;;;;;;4.91;100.00;93845.91;5024207;28;20045;-82
2021/11/24 09:46:10;;;;;;;47.25;27.35;;;;;;;4.96;100.00;93836.06;5024928;28;20797;-82
2021/11/24 09:48:38;;;;;;;69.82;40.97;;;;;;;5.08;100.00;93846.69;5025335;28;20640;-83
2021/11/24 09:51:06;;;;;;;56.47;32.72;;;;;;;5.26;100.00;93843.19;5025450;28;21000;-82
2021/11/24 09:53:34;;;;;;;46.80;30.27;;;;;;;5.05;100.00;93842.72;5025546;28;20056;-83
2021/11/24 09:56:02;;;;;;;55.50;35.83;;;;;;;5.08;100.00;93831.44;5025660;28;20052;-82
2021/11/24 09:58:29;;;;;;;53.55;31.85;;;;;;;4.99;100.00;93820.44;5025172;28;20045;-83
2021/11/24 10:00:57;;;;;;;44.38;27.52;;;;;;;5.20;100.00;93824.25;5025652;28;20046;-83
2021/11/24 10:03:26;;;;;;;49.03;31.30;;;;;;;4.89;100.00;93763.81;5025422;28;20150;-82
2021/11/24 10:05:54;;;;;;;87.05;47.67;;;;;;;5.35;100.00;93827.75;5015527;28;20745;-83
2021/11/24 10:08:22;;;;;;;83.22;44.72;;;;;;;5.15;100.00;93811.22;5018568;28;20056;-82
2021/11/24 10:10:48;;;;;;;67.88;39.53;;;;;;;5.24;100.00;93805.16;5029095;28;20056;-82
2021/11/24 10:13:16;;;;;;;40.42;27.35;;;;;;;5.52;100.00;93824.38;5029886;28;20416;-82
2021/11/24 10:15:45;;;;;;;52.75;33.08;;;;;;;5.46;100.00;93821.50;5029260;28;20045;-82
2021/11/24 10:18:18;;;;;;;44.22;27.45;;;;;;;5.52;100.00;93821.81;5029450;28;20085;-83
2021/11/24 10:20:50;;;;;;;81.38;41.72;;;;;;;5.47;100.00;93825.63;5029525;28;20064;-82
2021/11/24 10:23:27;;;;;;;40.28;24.95;;;;;;;5.51;100.00;93825.34;5029889;28;20045;-82
2021/11/24 10:25:54;;;;;;;72.10;35.50;;;;;;;5.52;100.00;93819.28;5030055;28;20054;-83
2021/11/24 10:28:29;;;;;;;148.48;73.55;;;;;;;5.70;100.00;93813.97;5029617;28;20051;-84
2021/11/24 10:30:56;;;;;;;84.10;39.33;;;;;;;5.25;100.00;93752.44;5029384;28;20049;-83
2021/11/24 10:33:26;;;;;;;48.33;28.08;;;;;;;5.43;100.00;93791.28;5029194;28;20511;-83
2021/11/24 10:36:10;;;;;;;37.58;22.98;;;;;;;5.22;100.00;93784.94;5029187;28;20413;-83
2021/11/24 10:38:42;;;;;;;32.75;20.70;;;;;;;5.48;100.00;93799.19;5029502;28;20053;-83
2021/11/24 10:41:11;;;;;;;36.17;24.67;;;;;;;5.43;100.00;93798.13;5029288;28;20106;-83
2021/11/24 10:43:44;;;;;;;37.28;24.30;;;;;;;5.46;100.00;93796.03;5029515;28;20099;-83
2021/11/24 10:46:13;;;;;;;32.60;21.88;;;;;;;5.67;100.00;93804.09;5029112;28;20045;-83
2021/11/24 10:48:41;;;;;;;41.05;24.60;;;;;;;5.78;100.00;93795.31;5029200;28;20516;-83
2021/11/24 10:51:31;;;;;;;37.88;22.00;;;;;;;5.67;100.00;93776.88;5029440;28;20100;-83
2021/11/24 10:54:09;;;;;;;44.05;27.45;;;;;;;5.79;100.00;93784.16;5029512;28;20053;-83
2021/11/24 10:56:36;;;;;;;41.67;23.65;;;;;;;5.92;100.00;93786.94;5029396;28;20598;-82
2021/11/24 10:59:16;;;;;;;34.45;20.52;;;;;;;5.71;100.00;93772.22;5029468;28;20045;-83
2021/11/24 11:01:44;;;;;;;27.80;18.60;;;;;;;5.84;100.00;93787.00;5029266;28;20050;-82
2021/11/24 11:04:12;;;;;;;31.38;19.83;;;;;;;5.72;100.00;93769.50;5028647;28;20054;-83
2021/11/24 11:06:41;;;;;;;36.83;21.90;;;;;;;5.70;100.00;93778.28;5029273;28;20076;-83
2021/11/24 11:09:09;;;;;;;55.35;29.67;;;;;;;5.58;100.00;93765.91;5028862;28;20056;-82
2021/11/24 11:11:38;;;;;;;92.97;45.78;;;;;;;5.62;100.00;93776.56;5029033;28;20584;-82
2021/11/24 11:14:20;;;;;;;90.28;41.88;;;;;;;5.58;100.00;93772.75;5028852;28;20509;-83
2021/11/24 11:16:49;;;;;;;159.40;66.55;;;;;;;5.67;100.00;93769.22;5028871;28;20081;-83
2021/11/24 11:19:39;;;;;;;53.28;29.73;;;;;;;5.70;100.00;93761.22;5028891;28;20513;-83